Emmonak Airport Emmonak US
ICAO: PAEM
IATA:
Category: Medium
Scheduled Services:

Elevation: 13 ft
TransAlt. 18000 ft.

Airport Communications:
AWOS 3:135.35
ANCHORAGE CNTR:132.5
CTAF:122.9
KENAI RDO:122.55
TWEB:177.8

PAEM Zoom In..

If you have problems with the map follow the link
https://www.worldairports.se/pages/airport.php?
ICAO=PAEM

Runways:

(A) RW 16 length 4601 ft width 100 ft
---- / hdg 163

(B) RW 34 length 4601 ft width 100 ft
---- / hdg 343

Location; PAEM
Day. 24 / Time. 07.56 Zulu
* Altimeter: 29.41
* Temperature: -04° c. -24.8°f.
* Wind from: 190° Speed 14 kn.
Dewpoint: -04° c.
Visibility: 9 Statute Miles.
Clouds: Overcast 900 ft.

PAEM 240756Z AUTO 19014KT 9SM UP OVC009 M04/M04 A2941 RMK AO2 UPE13B54SNB0659E11B13E54 CIG 007V012 SLP016 P0000 T10391044 400001083 FZRANO


Wind From 190°
Speed 14 kn.

 
 
jpsmedia.com for Web Design worldairports.se 2019   terms of use